createdAt,value
2017-02-26T00:00:21.671Z,1027.68
2017-02-26T00:01:21.661Z,1027.63
2017-02-26T00:02:21.650Z,1027.63
2017-02-26T00:03:21.639Z,1027.55
2017-02-26T00:04:21.628Z,1027.54
2017-02-26T00:05:21.617Z,1027.54
2017-02-26T00:06:21.608Z,1027.55
2017-02-26T00:07:21.596Z,1027.54
2017-02-26T00:08:21.586Z,1027.52
2017-02-26T00:09:21.576Z,1027.55
2017-02-26T00:10:21.566Z,1027.54
2017-02-26T00:11:21.554Z,1027.59
2017-02-26T00:12:21.544Z,1027.53
2017-02-26T00:13:21.533Z,1027.56
2017-02-26T00:14:21.523Z,1027.54
2017-02-26T00:15:21.512Z,1027.53
2017-02-26T00:16:21.500Z,1027.53
2017-02-26T00:17:21.491Z,1027.52
2017-02-26T00:18:21.480Z,1027.52
2017-02-26T00:19:21.470Z,1027.56
2017-02-26T00:20:21.459Z,1027.56
2017-02-26T00:21:21.449Z,1027.58
2017-02-26T00:22:21.438Z,1027.63
2017-02-26T00:23:21.427Z,1027.59
2017-02-26T00:24:21.450Z,1027.51
2017-02-26T00:25:21.407Z,1027.4
2017-02-26T00:26:21.398Z,1027.33
2017-02-26T00:27:21.385Z,1027.38
2017-02-26T00:28:21.375Z,1027.37
2017-02-26T00:29:21.365Z,1027.43
2017-02-26T00:30:21.353Z,1027.4
2017-02-26T00:31:21.343Z,1027.37
2017-02-26T00:32:21.333Z,1027.34
2017-02-26T00:33:21.322Z,1027.34
2017-02-26T00:34:21.312Z,1027.33
2017-02-26T00:35:21.302Z,1027.3
2017-02-26T00:36:21.292Z,1027.39
2017-02-26T00:37:21.279Z,1027.34
2017-02-26T00:38:21.270Z,1027.28
2017-02-26T00:39:21.259Z,1027.27
2017-02-26T00:40:21.250Z,1027.25
2017-02-26T00:41:21.238Z,1027.21
2017-02-26T00:42:21.228Z,1027.21
2017-02-26T00:43:21.217Z,1027.16
2017-02-26T00:44:21.207Z,1027.13
2017-02-26T00:45:21.197Z,1027.18
2017-02-26T00:46:21.186Z,1027.18
2017-02-26T00:47:21.176Z,1027.08
2017-02-26T00:48:21.165Z,1027.12
2017-02-26T00:49:21.155Z,1027.04
2017-02-26T00:50:21.145Z,1027.01
2017-02-26T00:51:21.135Z,1026.98
2017-02-26T00:52:21.123Z,1026.93
2017-02-26T00:53:21.113Z,1026.95
2017-02-26T00:54:21.103Z,1026.93
2017-02-26T00:55:21.093Z,1026.96
2017-02-26T00:56:21.081Z,1026.95
2017-02-26T00:57:21.072Z,1026.9
2017-02-26T00:58:21.062Z,1026.9
2017-02-26T00:59:21.051Z,1026.92
2017-02-26T01:00:21.041Z,1026.91
2017-02-26T01:01:21.030Z,1026.84
2017-02-26T01:02:21.021Z,1026.87
2017-02-26T01:03:21.010Z,1026.91
2017-02-26T01:04:20.999Z,1026.98
2017-02-26T01:05:20.989Z,1026.94
2017-02-26T01:06:20.978Z,1026.93
2017-02-26T01:07:20.968Z,1026.9
2017-02-26T01:08:20.960Z,1026.86
2017-02-26T01:09:20.947Z,1026.83
2017-02-26T01:10:20.937Z,1026.8
2017-02-26T01:11:20.928Z,1026.81
2017-02-26T01:12:20.916Z,1026.76
2017-02-26T01:13:20.907Z,1026.87
2017-02-26T01:14:20.898Z,1026.84
2017-02-26T01:15:20.887Z,1026.77
2017-02-26T01:16:20.877Z,1026.78
2017-02-26T01:17:20.867Z,1026.76
2017-02-26T01:18:20.856Z,1026.66
2017-02-26T01:19:20.846Z,1026.68
2017-02-26T01:20:20.838Z,1026.67
2017-02-26T01:21:20.826Z,1026.65
2017-02-26T01:22:20.816Z,1026.64
2017-02-26T01:23:20.805Z,1026.59
2017-02-26T01:24:20.794Z,1026.54
2017-02-26T01:25:20.785Z,1026.56
2017-02-26T01:26:20.775Z,1026.59
2017-02-26T01:27:20.765Z,1026.56
2017-02-26T01:28:20.755Z,1026.53
2017-02-26T01:29:20.745Z,1026.57
2017-02-26T01:30:20.735Z,1026.51
2017-02-26T01:31:20.725Z,1026.54
2017-02-26T01:32:20.714Z,1026.51
2017-02-26T01:33:20.703Z,1026.52
2017-02-26T01:34:20.693Z,1026.5
2017-02-26T01:35:20.684Z,1026.52
2017-02-26T01:36:20.674Z,1026.52
2017-02-26T01:37:20.664Z,1026.47
2017-02-26T01:38:20.654Z,1026.44
2017-02-26T01:39:20.643Z,1026.49
2017-02-26T01:40:20.634Z,1026.52
2017-02-26T01:41:20.624Z,1026.47
2017-02-26T01:42:20.620Z,1026.44
2017-02-26T01:43:20.603Z,1026.38
2017-02-26T01:44:20.593Z,1026.34
2017-02-26T01:45:20.584Z,1026.33
2017-02-26T01:46:20.576Z,1026.31
2017-02-26T01:47:20.563Z,1026.32
2017-02-26T01:48:20.553Z,1026.28
2017-02-26T01:49:20.543Z,1026.32
2017-02-26T01:50:20.532Z,1026.29
2017-02-26T01:51:20.523Z,1026.2
2017-02-26T01:52:20.515Z,1026.17
2017-02-26T01:53:20.504Z,1026.14
2017-02-26T01:54:20.527Z,1026.19
2017-02-26T01:55:20.483Z,1026.19
2017-02-26T01:56:20.473Z,1026.07
2017-02-26T01:57:20.462Z,1026.1
2017-02-26T01:58:20.453Z,1026.11
2017-02-26T01:59:20.443Z,1026.07
2017-02-26T02:00:20.434Z,1026.04
2017-02-26T02:01:20.423Z,1026.1
2017-02-26T02:02:20.413Z,1026.15
2017-02-26T02:03:20.404Z,1026.16
2017-02-26T02:04:20.394Z,1026.15
2017-02-26T02:05:20.384Z,1026.05
2017-02-26T02:06:20.373Z,1026.03
2017-02-26T02:07:20.363Z,1026.04
2017-02-26T02:08:20.353Z,1026.03
2017-02-26T02:09:20.344Z,1026.03
2017-02-26T02:10:20.334Z,1025.98
2017-02-26T02:11:20.324Z,1026
2017-02-26T02:12:20.313Z,1025.93
2017-02-26T02:13:20.304Z,1025.99
2017-02-26T02:14:20.294Z,1026.05
2017-02-26T02:15:20.286Z,1025.96
2017-02-26T02:16:20.273Z,1026.01
2017-02-26T02:17:20.264Z,1026.07
2017-02-26T02:18:20.254Z,1025.98
2017-02-26T02:19:20.243Z,1026.01
2017-02-26T02:20:20.233Z,1026.03
2017-02-26T02:21:20.224Z,1026.04
2017-02-26T02:22:20.215Z,1026.01
2017-02-26T02:23:20.204Z,1025.98
2017-02-26T02:24:20.194Z,1025.91
2017-02-26T02:25:20.185Z,1025.93
2017-02-26T02:26:20.175Z,1025.93
2017-02-26T02:27:20.163Z,1025.94
2017-02-26T02:28:20.154Z,1025.87
2017-02-26T02:29:20.145Z,1025.8
2017-02-26T02:30:20.135Z,1025.82
2017-02-26T02:31:20.124Z,1025.78
2017-02-26T02:32:20.114Z,1025.7
2017-02-26T02:33:20.105Z,1025.69
2017-02-26T02:34:20.094Z,1025.74
2017-02-26T02:35:20.089Z,1025.71
2017-02-26T02:36:20.075Z,1025.7
2017-02-26T02:37:20.066Z,1025.72
2017-02-26T02:38:20.054Z,1025.64
2017-02-26T02:39:20.046Z,1025.65
2017-02-26T02:40:20.035Z,1025.65
2017-02-26T02:41:20.026Z,1025.7
2017-02-26T02:42:20.017Z,1025.69
2017-02-26T02:43:20.007Z,1025.67
2017-02-26T02:44:19.997Z,1025.64
2017-02-26T02:45:19.986Z,1025.61
2017-02-26T02:46:19.977Z,1025.6
2017-02-26T02:47:19.967Z,1025.6
2017-02-26T02:48:19.958Z,1025.59
2017-02-26T02:49:19.948Z,1025.5
2017-02-26T02:50:19.939Z,1025.58
2017-02-26T02:51:19.929Z,1025.57
2017-02-26T02:52:19.918Z,1025.54
2017-02-26T02:53:19.909Z,1025.54
2017-02-26T02:54:19.899Z,1025.56
2017-02-26T02:55:19.890Z,1025.54
2017-02-26T02:56:19.879Z,1025.59
2017-02-26T02:57:19.869Z,1025.55
2017-02-26T02:58:19.860Z,1025.54
2017-02-26T02:59:19.849Z,1025.53
2017-02-26T03:00:19.842Z,1025.54
2017-02-26T03:01:19.830Z,1025.53
2017-02-26T03:02:19.821Z,1025.51
2017-02-26T03:03:19.810Z,1025.48
2017-02-26T03:04:19.800Z,1025.42
2017-02-26T03:05:19.790Z,1025.43
2017-02-26T03:06:19.781Z,1025.4
2017-02-26T03:07:19.770Z,1025.4
2017-02-26T03:08:19.761Z,1025.42
2017-02-26T03:09:19.751Z,1025.37
2017-02-26T03:10:19.741Z,1025.39
2017-02-26T03:11:19.731Z,1025.43
2017-02-26T03:12:19.721Z,1025.4
2017-02-26T03:13:19.712Z,1025.37
2017-02-26T03:14:19.702Z,1025.36
2017-02-26T03:15:19.692Z,1025.37
2017-02-26T03:16:19.683Z,1025.35
2017-02-26T03:17:19.673Z,1025.35
2017-02-26T03:18:19.663Z,1025.34
2017-02-26T03:19:19.653Z,1025.34
2017-02-26T03:20:19.644Z,1025.34
2017-02-26T03:21:19.633Z,1025.29
2017-02-26T03:22:19.623Z,1025.28
2017-02-26T03:23:19.613Z,1025.24
2017-02-26T03:24:19.604Z,1025.23
2017-02-26T03:25:19.593Z,1025.2
2017-02-26T03:26:19.584Z,1025.14
2017-02-26T03:27:19.575Z,1025.13
2017-02-26T03:28:19.565Z,1025.15
2017-02-26T03:29:19.554Z,1025.21
2017-02-26T03:30:19.545Z,1025.2
2017-02-26T03:31:19.536Z,1025.19
2017-02-26T03:32:19.525Z,1025.18
2017-02-26T03:33:19.516Z,1025.23
2017-02-26T03:34:19.506Z,1025.2
2017-02-26T03:35:19.497Z,1025.21
2017-02-26T03:36:19.486Z,1025.22
2017-02-26T03:37:19.477Z,1025.15
2017-02-26T03:38:19.467Z,1025.17
2017-02-26T03:39:19.458Z,1025.17
2017-02-26T03:40:19.447Z,1025.07
2017-02-26T03:41:19.438Z,1025.07
2017-02-26T03:42:19.433Z,1025.07
2017-02-26T03:43:19.417Z,1025
2017-02-26T03:44:19.409Z,1025.04
2017-02-26T03:45:19.399Z,1025.1
2017-02-26T03:46:19.389Z,1025.01
2017-02-26T03:47:19.379Z,1024.94
2017-02-26T03:48:19.370Z,1024.98
2017-02-26T03:49:19.361Z,1024.98
2017-02-26T03:50:19.351Z,1024.91
2017-02-26T03:51:19.340Z,1024.91
2017-02-26T03:52:19.331Z,1024.9
2017-02-26T03:53:19.323Z,1024.86
2017-02-26T03:54:19.311Z,1024.92
2017-02-26T03:55:19.302Z,1024.92
2017-02-26T03:56:19.292Z,1024.91
2017-02-26T03:57:19.283Z,1024.93
2017-02-26T03:58:19.274Z,1024.89
2017-02-26T03:59:19.265Z,1024.94
2017-02-26T04:00:19.253Z,1024.87
2017-02-26T04:01:19.244Z,1024.88
2017-02-26T04:02:19.234Z,1024.91
2017-02-26T04:03:19.225Z,1024.87
2017-02-26T04:04:19.215Z,1024.88
2017-02-26T04:05:19.205Z,1024.84
2017-02-26T04:06:19.195Z,1024.84
2017-02-26T04:07:19.186Z,1024.83
2017-02-26T04:08:19.176Z,1024.86
2017-02-26T04:09:19.166Z,1024.84
2017-02-26T04:10:19.157Z,1024.87
2017-02-26T04:11:19.147Z,1024.82
2017-02-26T04:12:19.137Z,1024.81
2017-02-26T04:13:19.127Z,1024.79
2017-02-26T04:14:19.117Z,1024.74
2017-02-26T04:15:19.109Z,1024.71
2017-02-26T04:16:19.098Z,1024.69
2017-02-26T04:17:19.089Z,1024.66
2017-02-26T04:18:19.079Z,1024.7
2017-02-26T04:19:19.069Z,1024.66
2017-02-26T04:20:19.059Z,1024.69
2017-02-26T04:21:19.049Z,1024.67
2017-02-26T04:22:19.040Z,1024.66
2017-02-26T04:23:19.031Z,1024.69
2017-02-26T04:24:19.022Z,1024.63
2017-02-26T04:25:19.012Z,1024.55
2017-02-26T04:26:19.005Z,1024.57
2017-02-26T04:27:18.992Z,1024.59
2017-02-26T04:28:18.983Z,1024.55
2017-02-26T04:29:18.974Z,1024.56
2017-02-26T04:30:18.965Z,1024.52
2017-02-26T04:31:18.955Z,1024.49
2017-02-26T04:32:18.945Z,1024.48
2017-02-26T04:33:18.970Z,1024.56
2017-02-26T04:34:18.925Z,1024.49
2017-02-26T04:35:19.166Z,1024.45
2017-02-26T04:36:18.906Z,1024.46
2017-02-26T04:37:18.896Z,1024.49
2017-02-26T04:38:18.887Z,1024.52
2017-02-26T04:39:18.877Z,1024.49
2017-02-26T04:40:18.868Z,1024.5
2017-02-26T04:41:18.859Z,1024.53
2017-02-26T04:42:18.848Z,1024.57
2017-02-26T04:43:18.839Z,1024.53
2017-02-26T04:44:18.830Z,1024.45
2017-02-26T04:45:18.819Z,1024.43
2017-02-26T04:46:18.810Z,1024.48
2017-02-26T04:47:18.801Z,1024.49
2017-02-26T04:48:18.791Z,1024.51
2017-02-26T04:49:18.781Z,1024.48
2017-02-26T04:50:18.771Z,1024.51
2017-02-26T04:51:18.762Z,1024.56
2017-02-26T04:52:18.752Z,1024.46
2017-02-26T04:53:18.742Z,1024.55
2017-02-26T04:54:18.733Z,1024.49
2017-02-26T04:55:18.723Z,1024.48
2017-02-26T04:56:18.713Z,1024.52
2017-02-26T04:57:18.703Z,1024.49
2017-02-26T04:58:18.695Z,1024.5
2017-02-26T04:59:18.685Z,1024.53
2017-02-26T05:00:18.676Z,1024.54
2017-02-26T05:01:18.665Z,1024.49
2017-02-26T05:02:18.657Z,1024.47
2017-02-26T05:03:18.647Z,1024.51
2017-02-26T05:04:18.636Z,1024.53
2017-02-26T05:05:18.627Z,1024.53
2017-02-26T05:06:18.617Z,1024.53
2017-02-26T05:07:18.607Z,1024.51
2017-02-26T05:08:18.598Z,1024.47
2017-02-26T05:09:18.588Z,1024.59
2017-02-26T05:10:18.579Z,1024.65
2017-02-26T05:11:18.569Z,1024.66
2017-02-26T05:12:18.559Z,1024.77
2017-02-26T05:13:18.550Z,1024.88
2017-02-26T05:14:18.540Z,1024.95
2017-02-26T05:15:18.530Z,1024.97
2017-02-26T05:16:18.521Z,1025.02
2017-02-26T05:17:18.512Z,1025.05
2017-02-26T05:18:18.502Z,1025.14
2017-02-26T05:19:18.491Z,1025.11
2017-02-26T05:20:18.481Z,1025.15
2017-02-26T05:21:18.472Z,1025.16
2017-02-26T05:22:18.462Z,1025.21
2017-02-26T05:23:18.453Z,1025.23
2017-02-26T05:24:18.443Z,1025.2
2017-02-26T05:25:18.433Z,1025.17
2017-02-26T05:26:18.423Z,1025.23
2017-02-26T05:27:18.413Z,1025.23
2017-02-26T05:28:18.403Z,1025.2
2017-02-26T05:29:18.395Z,1025.2
2017-02-26T05:30:18.384Z,1025.23
2017-02-26T05:31:18.374Z,1025.21
2017-02-26T05:32:18.365Z,1025.19
2017-02-26T05:33:18.353Z,1025.21
2017-02-26T05:34:18.344Z,1025.16
2017-02-26T05:35:18.335Z,1025.23
2017-02-26T05:36:18.325Z,1025.15
2017-02-26T05:37:18.313Z,1025.12
2017-02-26T05:38:18.303Z,1025.11
2017-02-26T05:39:18.294Z,1025.1
2017-02-26T05:40:18.284Z,1025.06
2017-02-26T05:41:18.273Z,1025.06
2017-02-26T05:42:18.264Z,1025.05
2017-02-26T05:43:18.254Z,1025.05
2017-02-26T05:44:18.243Z,1025.03
2017-02-26T05:45:18.234Z,1024.99
2017-02-26T05:46:18.224Z,1024.96
2017-02-26T05:47:18.215Z,1024.93
2017-02-26T05:48:18.203Z,1024.94
2017-02-26T05:49:18.194Z,1024.86
2017-02-26T05:50:18.183Z,1024.83
2017-02-26T05:51:18.172Z,1024.8
2017-02-26T05:52:18.163Z,1024.81
2017-02-26T05:53:18.154Z,1024.83
2017-02-26T05:54:18.144Z,1024.82
2017-02-26T05:55:18.132Z,1024.79
2017-02-26T05:56:18.124Z,1024.79
2017-02-26T05:57:18.114Z,1024.7
2017-02-26T05:58:18.104Z,1024.66
2017-02-26T05:59:18.095Z,1024.61
2017-02-26T06:00:18.085Z,1024.63
2017-02-26T06:01:18.076Z,1024.61
2017-02-26T06:02:18.065Z,1024.63
2017-02-26T06:03:18.058Z,1024.66
2017-02-26T06:04:18.045Z,1024.64
2017-02-26T06:05:18.035Z,1024.61
2017-02-26T06:06:18.025Z,1024.62
2017-02-26T06:07:18.014Z,1024.6
2017-02-26T06:08:18.005Z,1024.59
2017-02-26T06:09:17.995Z,1024.53
2017-02-26T06:10:17.985Z,1024.52
2017-02-26T06:11:17.974Z,1024.49
2017-02-26T06:12:17.966Z,1024.5
2017-02-26T06:13:17.955Z,1024.43
2017-02-26T06:14:17.945Z,1024.49
2017-02-26T06:15:17.936Z,1024.41
2017-02-26T06:16:17.926Z,1024.4
2017-02-26T06:17:17.916Z,1024.42
2017-02-26T06:18:17.906Z,1024.41
2017-02-26T06:19:17.896Z,1024.4
2017-02-26T06:20:17.885Z,1024.41
2017-02-26T06:21:17.877Z,1024.41
2017-02-26T06:22:17.867Z,1024.39
2017-02-26T06:23:17.857Z,1024.42
2017-02-26T06:24:17.847Z,1024.44
2017-02-26T06:25:17.837Z,1024.42
2017-02-26T06:26:17.827Z,1024.37
2017-02-26T06:27:17.818Z,1024.36
2017-02-26T06:28:17.809Z,1024.35
2017-02-26T06:29:17.798Z,1024.34
2017-02-26T06:30:17.788Z,1024.34
2017-02-26T06:31:17.778Z,1024.34
2017-02-26T06:32:17.768Z,1024.38
2017-02-26T06:33:17.758Z,1024.38
2017-02-26T06:34:17.749Z,1024.37
2017-02-26T06:35:17.739Z,1024.36
2017-02-26T06:36:17.729Z,1024.32
2017-02-26T06:37:17.719Z,1024.3
2017-02-26T06:38:17.710Z,1024.26
2017-02-26T06:39:17.699Z,1024.23
2017-02-26T06:40:17.690Z,1024.25
2017-02-26T06:41:17.682Z,1024.19
2017-02-26T06:42:17.670Z,1024.17
2017-02-26T06:43:17.661Z,1024.15
2017-02-26T06:44:17.651Z,1024.14
2017-02-26T06:45:17.642Z,1024.09
2017-02-26T06:46:17.632Z,1024.11
2017-02-26T06:47:17.621Z,1024.11
2017-02-26T06:48:17.613Z,1024.06
2017-02-26T06:49:17.603Z,1024.05
2017-02-26T06:50:17.593Z,1024.06
2017-02-26T06:51:17.583Z,1024.13
2017-02-26T06:52:17.574Z,1024.1
2017-02-26T06:53:17.564Z,1024.06
2017-02-26T06:54:17.554Z,1024.07
2017-02-26T06:55:17.545Z,1024.08
2017-02-26T06:56:17.535Z,1024.03
2017-02-26T06:57:17.525Z,1024.06
2017-02-26T06:58:17.516Z,1024.03
2017-02-26T06:59:17.507Z,1024.05
2017-02-26T07:00:17.498Z,1024.03
2017-02-26T07:01:17.487Z,1024.05
2017-02-26T07:02:17.478Z,1024.04
2017-02-26T07:03:17.468Z,1024.02
2017-02-26T07:04:17.458Z,1024.02
2017-02-26T07:05:17.448Z,1024.06
2017-02-26T07:06:17.440Z,1024.01
2017-02-26T07:07:17.431Z,1024.08
2017-02-26T07:08:17.420Z,1024.04
2017-02-26T07:09:17.411Z,1024.03
2017-02-26T07:10:17.401Z,1024
2017-02-26T07:11:17.393Z,1023.96
2017-02-26T07:12:17.383Z,1023.9
2017-02-26T07:13:17.372Z,1023.92
2017-02-26T07:14:17.363Z,1023.93
2017-02-26T07:15:17.355Z,1023.96
2017-02-26T07:16:17.349Z,1023.94
2017-02-26T07:17:17.336Z,1023.91
2017-02-26T07:18:17.326Z,1023.91
2017-02-26T07:19:17.316Z,1023.9
2017-02-26T07:20:17.345Z,1023.89
2017-02-26T07:21:17.298Z,1023.87
2017-02-26T07:22:17.290Z,1023.88
2017-02-26T07:23:17.279Z,1023.85
2017-02-26T07:24:17.270Z,1023.83
2017-02-26T07:25:17.261Z,1023.89
2017-02-26T07:26:17.252Z,1023.92
2017-02-26T07:27:17.243Z,1023.84
2017-02-26T07:28:17.233Z,1023.93
2017-02-26T07:29:17.225Z,1023.86
2017-02-26T07:30:17.215Z,1023.88
2017-02-26T07:31:17.206Z,1023.89
2017-02-26T07:32:17.198Z,1023.94
2017-02-26T07:33:17.188Z,1023.92
2017-02-26T07:34:17.179Z,1023.95
2017-02-26T07:35:17.171Z,1023.89
2017-02-26T07:36:17.162Z,1023.9
2017-02-26T07:37:17.152Z,1023.95
2017-02-26T07:38:17.143Z,1023.88
2017-02-26T07:39:17.135Z,1023.87
2017-02-26T07:40:17.126Z,1023.84
2017-02-26T07:41:17.116Z,1023.8
2017-02-26T07:42:17.107Z,1023.8
2017-02-26T07:43:17.098Z,1023.8
2017-02-26T07:44:17.089Z,1023.85
2017-02-26T07:45:17.080Z,1023.83
2017-02-26T07:46:17.071Z,1023.86
2017-02-26T07:47:17.062Z,1023.88
2017-02-26T07:48:17.052Z,1023.94
2017-02-26T07:49:17.044Z,1023.95
2017-02-26T07:50:17.035Z,1023.98
2017-02-26T07:51:17.026Z,1023.94
2017-02-26T07:52:17.017Z,1024.03
2017-02-26T07:53:17.008Z,1023.99
2017-02-26T07:54:16.999Z,1024
2017-02-26T07:55:16.989Z,1024
2017-02-26T07:56:16.981Z,1024
2017-02-26T07:57:16.971Z,1024.01
2017-02-26T07:58:16.963Z,1024.02
2017-02-26T07:59:16.953Z,1024.01
2017-02-26T08:00:16.945Z,1024
2017-02-26T08:01:16.936Z,1023.93
2017-02-26T08:02:16.927Z,1023.94
2017-02-26T08:03:16.917Z,1023.89
2017-02-26T08:04:16.908Z,1023.89
2017-02-26T08:05:16.900Z,1023.86
2017-02-26T08:06:16.890Z,1023.81
2017-02-26T08:07:16.881Z,1023.75
2017-02-26T08:08:16.873Z,1023.81
2017-02-26T08:09:16.864Z,1023.78
2017-02-26T08:10:16.855Z,1023.77
2017-02-26T08:11:16.845Z,1023.71
2017-02-26T08:12:16.837Z,1023.69
2017-02-26T08:13:16.828Z,1023.65
2017-02-26T08:14:16.818Z,1023.65
2017-02-26T08:15:16.810Z,1023.56
2017-02-26T08:16:16.800Z,1023.54
2017-02-26T08:17:16.791Z,1023.51
2017-02-26T08:18:16.782Z,1023.4
2017-02-26T08:19:16.773Z,1023.33
2017-02-26T08:20:16.765Z,1023.33
2017-02-26T08:21:16.756Z,1023.27
2017-02-26T08:22:16.749Z,1023.27
2017-02-26T08:23:16.739Z,1023.24
2017-02-26T08:24:16.730Z,1023.27
2017-02-26T08:25:16.721Z,1023.31
2017-02-26T08:26:16.712Z,1023.24
2017-02-26T08:27:16.704Z,1023.25
2017-02-26T08:28:16.695Z,1023.21
2017-02-26T08:29:16.687Z,1023.16
2017-02-26T08:30:16.678Z,1023.18
2017-02-26T08:31:16.670Z,1023.2
2017-02-26T08:32:16.661Z,1023.12
2017-02-26T08:33:16.653Z,1023.13
2017-02-26T08:34:16.645Z,1023.06
2017-02-26T08:35:16.638Z,1023.01
2017-02-26T08:36:16.629Z,1022.96
2017-02-26T08:37:16.619Z,1022.94
2017-02-26T08:38:16.611Z,1022.92
2017-02-26T08:39:16.602Z,1022.94
2017-02-26T08:40:16.598Z,1022.98
2017-02-26T08:41:16.586Z,1022.97
2017-02-26T08:42:16.578Z,1022.98
2017-02-26T08:43:16.569Z,1022.96
2017-02-26T08:44:16.561Z,1022.94
2017-02-26T08:45:16.556Z,1022.87
2017-02-26T08:46:16.545Z,1022.94
2017-02-26T08:47:16.537Z,1022.95
2017-02-26T08:48:16.528Z,1022.98
2017-02-26T08:49:16.521Z,1023.01
2017-02-26T08:50:16.512Z,1023.05
2017-02-26T08:51:16.504Z,1023.03
2017-02-26T08:52:16.497Z,1023.03
2017-02-26T08:53:16.488Z,1023.05
2017-02-26T08:54:16.480Z,1022.98
2017-02-26T08:55:16.473Z,1022.96
2017-02-26T08:56:16.464Z,1022.93
2017-02-26T08:57:16.456Z,1022.9
2017-02-26T08:58:16.448Z,1022.93
2017-02-26T08:59:16.440Z,1023
2017-02-26T09:00:16.432Z,1022.9
2017-02-26T09:01:16.423Z,1022.78
2017-02-26T09:02:16.416Z,1022.8
2017-02-26T09:03:16.409Z,1022.72
2017-02-26T09:04:16.401Z,1022.65
2017-02-26T09:05:16.393Z,1022.56
2017-02-26T09:06:16.386Z,1022.52
2017-02-26T09:07:16.379Z,1022.43
2017-02-26T09:08:16.369Z,1022.34
2017-02-26T09:09:16.363Z,1022.28
2017-02-26T09:10:16.356Z,1022.24
2017-02-26T09:11:16.348Z,1022.27
2017-02-26T09:12:16.340Z,1022.3
2017-02-26T09:13:16.332Z,1022.29
2017-02-26T09:14:16.325Z,1022.26
2017-02-26T09:15:16.319Z,1022.23
2017-02-26T09:16:16.311Z,1022.16
2017-02-26T09:17:16.304Z,1022.13
2017-02-26T09:18:16.296Z,1022.08
2017-02-26T09:19:16.288Z,1022.08
2017-02-26T09:20:16.281Z,1022.1
2017-02-26T09:21:16.273Z,1022.18
2017-02-26T09:22:16.266Z,1022.23
2017-02-26T09:23:16.259Z,1022.27
2017-02-26T09:24:16.252Z,1022.38
2017-02-26T09:25:16.245Z,1022.44
2017-02-26T09:26:16.239Z,1022.4
2017-02-26T09:27:16.230Z,1022.41
2017-02-26T09:28:16.223Z,1022.45
2017-02-26T09:29:16.216Z,1022.39
2017-02-26T09:30:16.208Z,1022.32
2017-02-26T09:31:16.201Z,1022.31
2017-02-26T09:32:16.194Z,1022.33
2017-02-26T09:33:16.187Z,1022.38
2017-02-26T09:34:16.179Z,1022.32
2017-02-26T09:35:16.172Z,1022.37
2017-02-26T09:36:16.165Z,1022.29
2017-02-26T09:37:16.157Z,1022.25
2017-02-26T09:38:16.150Z,1022.27
2017-02-26T09:39:16.143Z,1022.27
2017-02-26T09:40:16.136Z,1022.28
2017-02-26T09:41:16.128Z,1022.29
2017-02-26T09:42:16.121Z,1022.23
2017-02-26T09:43:16.113Z,1022.28
2017-02-26T09:44:16.107Z,1022.2
2017-02-26T09:45:16.099Z,1022.26
2017-02-26T09:46:16.092Z,1022.16
2017-02-26T09:47:16.085Z,1022.09
2017-02-26T09:48:16.077Z,1022.09
2017-02-26T09:49:16.070Z,1022.03
2017-02-26T09:50:16.063Z,1021.99
2017-02-26T09:51:16.056Z,1021.97
2017-02-26T09:52:16.048Z,1021.93
2017-02-26T09:53:16.041Z,1021.9
2017-02-26T09:54:16.035Z,1021.84
2017-02-26T09:55:16.027Z,1021.73
2017-02-26T09:56:16.020Z,1021.66
2017-02-26T09:57:16.013Z,1021.7
2017-02-26T09:58:16.007Z,1021.7
2017-02-26T09:59:16.000Z,1021.79
2017-02-26T10:00:15.992Z,1021.79
2017-02-26T10:01:15.985Z,1021.79
2017-02-26T10:02:15.979Z,1021.84
2017-02-26T10:03:15.971Z,1021.96
2017-02-26T10:04:15.965Z,1022.05
2017-02-26T10:05:15.959Z,1022.12
2017-02-26T10:06:15.952Z,1022.21
2017-02-26T10:07:15.944Z,1022.17
2017-02-26T10:08:15.937Z,1022.17
2017-02-26T10:09:15.930Z,1022.16
2017-02-26T10:10:15.924Z,1022.26
2017-02-26T10:11:15.916Z,1022.22
2017-02-26T10:12:15.910Z,1022.32
2017-02-26T10:13:15.902Z,1022.26
2017-02-26T10:14:15.894Z,1022.28
2017-02-26T10:15:15.888Z,1022.32
2017-02-26T10:16:15.881Z,1022.31
2017-02-26T10:17:15.874Z,1022.22
2017-02-26T10:18:15.866Z,1022.18
2017-02-26T10:19:15.859Z,1022.1
2017-02-26T10:20:15.852Z,1022.16
2017-02-26T10:21:15.845Z,1022
2017-02-26T10:22:15.838Z,1021.88
2017-02-26T10:23:15.830Z,1021.79
2017-02-26T10:24:15.824Z,1021.76
2017-02-26T10:25:15.815Z,1021.75
2017-02-26T10:26:15.809Z,1021.72
2017-02-26T10:27:15.801Z,1021.76
2017-02-26T10:28:15.795Z,1021.73
2017-02-26T10:29:15.787Z,1021.7
2017-02-26T10:30:15.780Z,1021.72
2017-02-26T10:31:15.773Z,1021.72
2017-02-26T10:32:15.767Z,1021.78
2017-02-26T10:33:15.759Z,1021.78
2017-02-26T10:34:15.752Z,1021.83
2017-02-26T10:35:15.745Z,1021.85
2017-02-26T10:36:15.738Z,1021.82
2017-02-26T10:37:15.731Z,1021.78
2017-02-26T10:38:15.724Z,1021.74
2017-02-26T10:39:15.718Z,1021.67
2017-02-26T10:40:15.711Z,1021.63
2017-02-26T10:41:15.703Z,1021.6
2017-02-26T10:42:15.697Z,1021.58
2017-02-26T10:43:15.689Z,1021.53
2017-02-26T10:44:15.683Z,1021.56
2017-02-26T10:45:15.677Z,1021.55
2017-02-26T10:46:15.670Z,1021.54
2017-02-26T10:47:15.663Z,1021.51
2017-02-26T10:48:15.655Z,1021.45
2017-02-26T10:49:15.650Z,1021.41
2017-02-26T10:50:15.643Z,1021.44
2017-02-26T10:51:15.634Z,1021.53
2017-02-26T10:52:15.629Z,1021.53
2017-02-26T10:53:15.623Z,1021.46
2017-02-26T10:54:15.615Z,1021.4
2017-02-26T10:55:15.609Z,1021.32
2017-02-26T10:56:15.603Z,1021.33
2017-02-26T10:57:15.596Z,1021.37
2017-02-26T10:58:15.589Z,1021.36
2017-02-26T10:59:15.584Z,1021.29
2017-02-26T11:00:15.577Z,1021.22
2017-02-26T11:01:15.570Z,1021.22
2017-02-26T11:02:15.563Z,1021.22
2017-02-26T11:03:15.557Z,1021.23
2017-02-26T11:04:15.551Z,1021.3
2017-02-26T11:05:15.544Z,1021.28
2017-02-26T11:06:15.537Z,1021.38
2017-02-26T11:07:15.531Z,1021.39
2017-02-26T11:08:15.525Z,1021.34
2017-02-26T11:09:15.519Z,1021.46
2017-02-26T11:10:15.512Z,1021.46
2017-02-26T11:11:15.507Z,1021.52
2017-02-26T11:12:15.499Z,1021.58
2017-02-26T11:13:15.493Z,1021.59
2017-02-26T11:14:15.486Z,1021.49
2017-02-26T11:15:15.480Z,1021.38
2017-02-26T11:16:15.476Z,1021.31
2017-02-26T11:17:15.467Z,1021.28
2017-02-26T11:18:15.461Z,1021.18
2017-02-26T11:19:15.455Z,1021.17
2017-02-26T11:20:15.447Z,1021.05
2017-02-26T11:21:15.441Z,1021.04
2017-02-26T11:22:15.470Z,1020.99
2017-02-26T11:23:15.429Z,1020.95
2017-02-26T11:24:15.422Z,1021
2017-02-26T11:25:15.416Z,1021.03
2017-02-26T11:26:15.411Z,1021.06
2017-02-26T11:27:15.403Z,1021.15
2017-02-26T11:28:15.408Z,1021.11
2017-02-26T11:29:15.392Z,1021.07
2017-02-26T11:30:15.386Z,1021.1
2017-02-26T11:31:15.379Z,1021.1
2017-02-26T11:32:15.373Z,1021.07
2017-02-26T11:33:15.367Z,1021.15
2017-02-26T11:34:15.361Z,1021.18
2017-02-26T11:35:15.354Z,1021.18
2017-02-26T11:36:15.349Z,1021.24
2017-02-26T11:37:15.342Z,1021.27
2017-02-26T11:38:15.335Z,1021.23
2017-02-26T11:39:15.329Z,1021.16
2017-02-26T11:40:15.323Z,1021.11
2017-02-26T11:41:15.317Z,1021.04
2017-02-26T11:42:15.310Z,1020.96
2017-02-26T11:43:15.302Z,1020.94
2017-02-26T11:44:15.298Z,1020.89
2017-02-26T11:45:15.291Z,1020.95
2017-02-26T11:46:15.284Z,1020.9
2017-02-26T11:47:15.279Z,1020.89
2017-02-26T11:48:15.272Z,1020.84
2017-02-26T11:49:15.265Z,1020.81
2017-02-26T11:50:15.259Z,1020.72
2017-02-26T11:51:15.255Z,1020.61
2017-02-26T11:52:15.248Z,1020.53
2017-02-26T11:53:15.240Z,1020.53
2017-02-26T11:54:15.235Z,1020.38
2017-02-26T11:55:15.229Z,1020.36
2017-02-26T11:56:15.223Z,1020.31
2017-02-26T11:57:15.216Z,1020.3
2017-02-26T11:58:15.212Z,1020.33
2017-02-26T11:59:15.205Z,1020.37
2017-02-26T12:00:15.199Z,1020.39
2017-02-26T12:01:15.193Z,1020.39
2017-02-26T12:02:15.187Z,1020.35
2017-02-26T12:03:15.181Z,1020.34
2017-02-26T12:04:15.176Z,1020.29
2017-02-26T12:05:15.169Z,1020.2
2017-02-26T12:06:15.163Z,1020.12
2017-02-26T12:07:15.158Z,1020.1
2017-02-26T12:08:15.152Z,1020.09